sensor_id;sensor_type;location;lat;lon;timestamp;pressure;altitude;pressure_sealevel;temperature;humidity
64628;BME280;68467;50.960;0.314;2023-04-01T00:01:44;98169.18;;;6.68;100.00
64628;BME280;68467;50.960;0.314;2023-04-01T00:04:11;98171.38;;;6.90;100.00
64628;BME280;68467;50.960;0.314;2023-04-01T00:06:38;98177.44;;;7.09;100.00
64628;BME280;68467;50.960;0.314;2023-04-01T00:09:05;98172.69;;;6.90;100.00
64628;BME280;68467;50.960;0.314;2023-04-01T00:11:33;98174.86;;;7.27;100.00
64628;BME280;68467;50.960;0.314;2023-04-01T00:13:59;98177.82;;;7.21;100.00
64628;BME280;68467;50.960;0.314;2023-04-01T00:16:27;98183.34;;;6.80;100.00
64628;BME280;68467;50.960;0.314;2023-04-01T00:18:54;98185.16;;;7.05;100.00
64628;BME280;68467;50.960;0.314;2023-04-01T00:21:21;98189.80;;;7.22;100.00
64628;BME280;68467;50.960;0.314;2023-04-01T00:23:49;98195.38;;;7.08;100.00
64628;BME280;68467;50.960;0.314;2023-04-01T00:26:17;98198.60;;;6.70;100.00
64628;BME280;68467;50.960;0.314;2023-04-01T00:28:45;98200.47;;;6.95;100.00
64628;BME280;68467;50.960;0.314;2023-04-01T00:31:13;98204.02;;;7.34;100.00
64628;BME280;68467;50.960;0.314;2023-04-01T00:33:41;98199.76;;;7.32;100.00
64628;BME280;68467;50.960;0.314;2023-04-01T00:36:10;98202.69;;;7.48;100.00
64628;BME280;68467;50.960;0.314;2023-04-01T00:38:38;98205.26;;;6.50;100.00
64628;BME280;68467;50.960;0.314;2023-04-01T00:41:06;98213.41;;;7.05;100.00
64628;BME280;68467;50.960;0.314;2023-04-01T00:43:34;98214.71;;;7.04;100.00
64628;BME280;68467;50.960;0.314;2023-04-01T00:46:01;98216.97;;;7.41;100.00
64628;BME280;68467;50.960;0.314;2023-04-01T00:48:31;98220.40;;;7.22;100.00
64628;BME280;68467;50.960;0.314;2023-04-01T00:51:02;98220.27;;;7.22;100.00
64628;BME280;68467;50.960;0.314;2023-04-01T00:53:32;98223.73;;;7.02;100.00
64628;BME280;68467;50.960;0.314;2023-04-01T00:56:04;98227.30;;;7.02;100.00
64628;BME280;68467;50.960;0.314;2023-04-01T00:58:36;98229.08;;;7.10;100.00
64628;BME280;68467;50.960;0.314;2023-04-01T01:01:06;98232.57;;;7.02;100.00
64628;BME280;68467;50.960;0.314;2023-04-01T01:03:34;98235.52;;;6.69;100.00
64628;BME280;68467;50.960;0.314;2023-04-01T01:06:15;98241.00;;;6.67;100.00
64628;BME280;68467;50.960;0.314;2023-04-01T01:08:58;98241.97;;;6.53;100.00
64628;BME280;68467;50.960;0.314;2023-04-01T01:11:35;98247.37;;;6.51;100.00
64628;BME280;68467;50.960;0.314;2023-04-01T01:14:10;98247.51;;;6.52;100.00
64628;BME280;68467;50.960;0.314;2023-04-01T01:16:43;98247.14;;;6.61;100.00
64628;BME280;68467;50.960;0.314;2023-04-01T01:19:30;98249.54;;;6.79;100.00
64628;BME280;68467;50.960;0.314;2023-04-01T01:22:10;98247.36;;;6.52;100.00
64628;BME280;68467;50.960;0.314;2023-04-01T01:25:04;98248.78;;;6.59;100.00
64628;BME280;68467;50.960;0.314;2023-04-01T01:27:39;98247.38;;;6.62;100.00
64628;BME280;68467;50.960;0.314;2023-04-01T01:30:21;98249.93;;;6.33;100.00
64628;BME280;68467;50.960;0.314;2023-04-01T01:33:06;98251.71;;;7.07;100.00
64628;BME280;68467;50.960;0.314;2023-04-01T01:35:38;98258.66;;;6.62;100.00
64628;BME280;68467;50.960;0.314;2023-04-01T01:38:08;98264.79;;;6.65;100.00
64628;BME280;68467;50.960;0.314;2023-04-01T01:40:40;98267.41;;;6.56;100.00
64628;BME280;68467;50.960;0.314;2023-04-01T01:43:11;98269.89;;;6.65;100.00
64628;BME280;68467;50.960;0.314;2023-04-01T01:45:53;98274.35;;;6.85;100.00
64628;BME280;68467;50.960;0.314;2023-04-01T01:48:23;98277.25;;;6.60;100.00
64628;BME280;68467;50.960;0.314;2023-04-01T01:50:52;98282.24;;;6.40;100.00
64628;BME280;68467;50.960;0.314;2023-04-01T01:53:21;98280.45;;;6.79;100.00
64628;BME280;68467;50.960;0.314;2023-04-01T01:55:48;98293.83;;;6.60;100.00
64628;BME280;68467;50.960;0.314;2023-04-01T01:58:19;98295.45;;;6.22;100.00
64628;BME280;68467;50.960;0.314;2023-04-01T02:00:52;98298.98;;;6.21;100.00
64628;BME280;68467;50.960;0.314;2023-04-01T02:03:22;98302.98;;;6.61;100.00
64628;BME280;68467;50.960;0.314;2023-04-01T02:05:51;98301.58;;;6.68;100.00
64628;BME280;68467;50.960;0.314;2023-04-01T02:08:24;98304.53;;;6.88;100.00
64628;BME280;68467;50.960;0.314;2023-04-01T02:10:56;98307.18;;;6.22;100.00
64628;BME280;68467;50.960;0.314;2023-04-01T02:13:28;98312.46;;;6.70;100.00
64628;BME280;68467;50.960;0.314;2023-04-01T02:16:00;98315.29;;;6.09;100.00
64628;BME280;68467;50.960;0.314;2023-04-01T02:18:30;98316.17;;;6.14;100.00
64628;BME280;68467;50.960;0.314;2023-04-01T02:20:59;98322.25;;;6.74;100.00
64628;BME280;68467;50.960;0.314;2023-04-01T02:23:28;98327.31;;;6.38;100.00
64628;BME280;68467;50.960;0.314;2023-04-01T02:25:55;98333.88;;;6.16;100.00
64628;BME280;68467;50.960;0.314;2023-04-01T02:28:23;98328.38;;;6.92;100.00
64628;BME280;68467;50.960;0.314;2023-04-01T02:30:52;98330.40;;;6.38;100.00
64628;BME280;68467;50.960;0.314;2023-04-01T02:33:19;98332.53;;;6.62;100.00
64628;BME280;68467;50.960;0.314;2023-04-01T02:35:47;98336.39;;;6.25;100.00
64628;BME280;68467;50.960;0.314;2023-04-01T02:38:14;98343.79;;;6.22;100.00
64628;BME280;68467;50.960;0.314;2023-04-01T02:40:44;98341.43;;;6.89;100.00
64628;BME280;68467;50.960;0.314;2023-04-01T02:43:13;98337.97;;;7.00;100.00
64628;BME280;68467;50.960;0.314;2023-04-01T02:45:40;98340.20;;;6.72;100.00
64628;BME280;68467;50.960;0.314;2023-04-01T02:48:08;98342.33;;;6.50;100.00
64628;BME280;68467;50.960;0.314;2023-04-01T02:50:35;98344.97;;;6.53;100.00
64628;BME280;68467;50.960;0.314;2023-04-01T02:53:02;98347.91;;;6.71;100.00
64628;BME280;68467;50.960;0.314;2023-04-01T02:55:29;98352.11;;;6.60;100.00
64628;BME280;68467;50.960;0.314;2023-04-01T02:57:57;98352.07;;;6.46;100.00
64628;BME280;68467;50.960;0.314;2023-04-01T03:00:25;98349.96;;;6.56;100.00
64628;BME280;68467;50.960;0.314;2023-04-01T03:02:53;98356.75;;;6.69;100.00
64628;BME280;68467;50.960;0.314;2023-04-01T03:05:20;98356.77;;;6.99;100.00
64628;BME280;68467;50.960;0.314;2023-04-01T03:07:47;98363.98;;;6.42;100.00
64628;BME280;68467;50.960;0.314;2023-04-01T03:10:14;98362.64;;;6.99;100.00
64628;BME280;68467;50.960;0.314;2023-04-01T03:12:41;98370.45;;;6.56;100.00
64628;BME280;68467;50.960;0.314;2023-04-01T03:15:11;98369.65;;;6.73;100.00
64628;BME280;68467;50.960;0.314;2023-04-01T03:17:38;98368.76;;;6.14;100.00
64628;BME280;68467;50.960;0.314;2023-04-01T03:20:07;98375.97;;;6.22;100.00
64628;BME280;68467;50.960;0.314;2023-04-01T03:22:34;98374.86;;;5.96;100.00
64628;BME280;68467;50.960;0.314;2023-04-01T03:25:03;98382.06;;;6.34;100.00
64628;BME280;68467;50.960;0.314;2023-04-01T03:27:30;98385.71;;;5.87;100.00
64628;BME280;68467;50.960;0.314;2023-04-01T03:29:57;98385.80;;;6.58;100.00
64628;BME280;68467;50.960;0.314;2023-04-01T03:32:25;98386.27;;;6.43;100.00
64628;BME280;68467;50.960;0.314;2023-04-01T03:34:52;98389.16;;;6.41;100.00
64628;BME280;68467;50.960;0.314;2023-04-01T03:37:20;98392.91;;;6.59;100.00
64628;BME280;68467;50.960;0.314;2023-04-01T03:39:47;98390.29;;;6.72;100.00
64628;BME280;68467;50.960;0.314;2023-04-01T03:42:14;98391.60;;;6.95;100.00
64628;BME280;68467;50.960;0.314;2023-04-01T03:44:41;98391.83;;;6.54;100.00
64628;BME280;68467;50.960;0.314;2023-04-01T03:47:08;98396.49;;;6.53;100.00
64628;BME280;68467;50.960;0.314;2023-04-01T03:49:36;98398.75;;;6.39;100.00
64628;BME280;68467;50.960;0.314;2023-04-01T03:52:04;98399.94;;;6.47;100.00
64628;BME280;68467;50.960;0.314;2023-04-01T03:54:31;98398.73;;;6.77;100.00
64628;BME280;68467;50.960;0.314;2023-04-01T03:56:59;98398.32;;;6.59;100.00
64628;BME280;68467;50.960;0.314;2023-04-01T03:59:27;98402.18;;;6.63;100.00
64628;BME280;68467;50.960;0.314;2023-04-01T04:01:54;98404.13;;;6.95;100.00
64628;BME280;68467;50.960;0.314;2023-04-01T04:04:22;98409.85;;;6.62;100.00
64628;BME280;68467;50.960;0.314;2023-04-01T04:06:50;98409.93;;;6.91;100.00
64628;BME280;68467;50.960;0.314;2023-04-01T04:09:17;98411.11;;;6.88;100.00
64628;BME280;68467;50.960;0.314;2023-04-01T04:11:45;98411.21;;;7.04;100.00
64628;BME280;68467;50.960;0.314;2023-04-01T04:14:12;98410.66;;;7.17;100.00
64628;BME280;68467;50.960;0.314;2023-04-01T04:16:39;98417.21;;;6.96;100.00
64628;BME280;68467;50.960;0.314;2023-04-01T04:19:07;98415.75;;;6.79;100.00
64628;BME280;68467;50.960;0.314;2023-04-01T04:21:35;98417.04;;;7.07;100.00
64628;BME280;68467;50.960;0.314;2023-04-01T04:24:03;98415.82;;;6.75;100.00
64628;BME280;68467;50.960;0.314;2023-04-01T04:26:31;98424.55;;;6.69;100.00
64628;BME280;68467;50.960;0.314;2023-04-01T04:28:58;98427.50;;;6.81;100.00
64628;BME280;68467;50.960;0.314;2023-04-01T04:31:26;98432.59;;;6.81;100.00
64628;BME280;68467;50.960;0.314;2023-04-01T04:33:54;98434.68;;;6.34;100.00
64628;BME280;68467;50.960;0.314;2023-04-01T04:36:22;98440.20;;;6.80;100.00
64628;BME280;68467;50.960;0.314;2023-04-01T04:38:49;98444.26;;;6.69;100.00
64628;BME280;68467;50.960;0.314;2023-04-01T04:41:17;98444.68;;;7.01;100.00
64628;BME280;68467;50.960;0.314;2023-04-01T04:43:50;98445.44;;;6.19;100.00
64628;BME280;68467;50.960;0.314;2023-04-01T04:46:17;98445.05;;;6.64;100.00
64628;BME280;68467;50.960;0.314;2023-04-01T04:48:46;98446.73;;;7.03;100.00
64628;BME280;68467;50.960;0.314;2023-04-01T04:51:14;98446.47;;;7.31;100.00
64628;BME280;68467;50.960;0.314;2023-04-01T04:53:42;98450.70;;;7.27;100.00
64628;BME280;68467;50.960;0.314;2023-04-01T04:56:11;98451.99;;;7.37;100.00
64628;BME280;68467;50.960;0.314;2023-04-01T04:58:39;98454.62;;;7.17;100.00
64628;BME280;68467;50.960;0.314;2023-04-01T05:01:08;98455.55;;;7.01;100.00
64628;BME280;68467;50.960;0.314;2023-04-01T05:03:36;98457.80;;;7.05;100.00
64628;BME280;68467;50.960;0.314;2023-04-01T05:06:05;98458.19;;;7.29;100.00
64628;BME280;68467;50.960;0.314;2023-04-01T05:08:33;98460.62;;;7.58;100.00
64628;BME280;68467;50.960;0.314;2023-04-01T05:11:01;98462.67;;;7.21;100.00
64628;BME280;68467;50.960;0.314;2023-04-01T05:13:29;98466.07;;;7.05;100.00
64628;BME280;68467;50.960;0.314;2023-04-01T05:15:56;98469.55;;;7.33;100.00
64628;BME280;68467;50.960;0.314;2023-04-01T05:18:23;98474.70;;;6.59;100.00
64628;BME280;68467;50.960;0.314;2023-04-01T05:20:52;98477.16;;;7.07;100.00
64628;BME280;68467;50.960;0.314;2023-04-01T05:23:20;98479.93;;;6.91;100.00
64628;BME280;68467;50.960;0.314;2023-04-01T05:25:49;98479.41;;;6.72;100.00
64628;BME280;68467;50.960;0.314;2023-04-01T05:28:16;98482.29;;;6.62;100.00
64628;BME280;68467;50.960;0.314;2023-04-01T05:30:43;98485.20;;;6.67;100.00
64628;BME280;68467;50.960;0.314;2023-04-01T05:33:12;98484.74;;;6.83;100.00
64628;BME280;68467;50.960;0.314;2023-04-01T05:35:39;98484.94;;;6.55;100.00
64628;BME280;68467;50.960;0.314;2023-04-01T05:38:06;98486.93;;;6.73;100.00
64628;BME280;68467;50.960;0.314;2023-04-01T05:40:34;98484.92;;;7.42;100.00
64628;BME280;68467;50.960;0.314;2023-04-01T05:43:02;98484.76;;;7.39;100.00
64628;BME280;68467;50.960;0.314;2023-04-01T05:45:29;98488.88;;;7.11;100.00
64628;BME280;68467;50.960;0.314;2023-04-01T05:47:58;98493.52;;;7.05;100.00
64628;BME280;68467;50.960;0.314;2023-04-01T05:50:25;98495.33;;;7.39;100.00
64628;BME280;68467;50.960;0.314;2023-04-01T05:52:53;98499.61;;;6.73;100.00
64628;BME280;68467;50.960;0.314;2023-04-01T05:55:20;98504.91;;;6.72;100.00
64628;BME280;68467;50.960;0.314;2023-04-01T05:57:48;98504.83;;;7.29;100.00
64628;BME280;68467;50.960;0.314;2023-04-01T06:00:16;98505.80;;;8.06;100.00
64628;BME280;68467;50.960;0.314;2023-04-01T06:02:43;98503.91;;;7.86;100.00
64628;BME280;68467;50.960;0.314;2023-04-01T06:05:14;98509.30;;;7.79;100.00
64628;BME280;68467;50.960;0.314;2023-04-01T06:07:43;98511.73;;;7.39;100.00
64628;BME280;68467;50.960;0.314;2023-04-01T06:10:13;98513.11;;;7.55;100.00
64628;BME280;68467;50.960;0.314;2023-04-01T06:12:52;98513.50;;;7.42;100.00
64628;BME280;68467;50.960;0.314;2023-04-01T06:15:29;98518.02;;;7.85;100.00
64628;BME280;68467;50.960;0.314;2023-04-01T06:18:24;98519.54;;;7.34;100.00
64628;BME280;68467;50.960;0.314;2023-04-01T06:21:03;98523.41;;;7.54;100.00
64628;BME280;68467;50.960;0.314;2023-04-01T06:23:44;98528.81;;;7.23;100.00
64628;BME280;68467;50.960;0.314;2023-04-01T06:26:24;98526.40;;;7.57;100.00
64628;BME280;68467;50.960;0.314;2023-04-01T06:30:10;98528.59;;;7.70;100.00
64628;BME280;68467;50.960;0.314;2023-04-01T06:32:55;98529.21;;;8.19;100.00
64628;BME280;68467;50.960;0.314;2023-04-01T06:35:38;98535.38;;;7.80;100.00
64628;BME280;68467;50.960;0.314;2023-04-01T06:38:20;98535.62;;;7.95;100.00
64628;BME280;68467;50.960;0.314;2023-04-01T06:41:17;98535.11;;;8.99;100.00
64628;BME280;68467;50.960;0.314;2023-04-01T06:43:56;98536.52;;;8.73;100.00
64628;BME280;68467;50.960;0.314;2023-04-01T06:46:33;98540.80;;;8.62;100.00
64628;BME280;68467;50.960;0.314;2023-04-01T06:49:17;98543.10;;;8.74;100.00
64628;BME280;68467;50.960;0.314;2023-04-01T06:51:55;98543.52;;;8.73;100.00
64628;BME280;68467;50.960;0.314;2023-04-01T06:54:30;98546.21;;;9.12;100.00
64628;BME280;68467;50.960;0.314;2023-04-01T06:57:02;98551.60;;;8.67;100.00
64628;BME280;68467;50.960;0.314;2023-04-01T06:59:32;98551.37;;;9.12;100.00
64628;BME280;68467;50.960;0.314;2023-04-01T07:02:05;98560.84;;;8.26;100.00
64628;BME280;68467;50.960;0.314;2023-04-01T07:04:43;98563.91;;;7.93;100.00
64628;BME280;68467;50.960;0.314;2023-04-01T07:07:19;98564.70;;;9.29;100.00
64628;BME280;68467;50.960;0.314;2023-04-01T07:09:51;98565.25;;;9.40;100.00
64628;BME280;68467;50.960;0.314;2023-04-01T07:12:27;98565.87;;;9.14;100.00
64628;BME280;68467;50.960;0.314;2023-04-01T07:15:01;98572.66;;;8.21;100.00
64628;BME280;68467;50.960;0.314;2023-04-01T07:17:33;98572.72;;;8.33;100.00
64628;BME280;68467;50.960;0.314;2023-04-01T07:20:10;98576.77;;;8.51;100.00
64628;BME280;68467;50.960;0.314;2023-04-01T07:22:40;98580.57;;;8.58;100.00
64628;BME280;68467;50.960;0.314;2023-04-01T07:25:13;98581.04;;;8.27;100.00
64628;BME280;68467;50.960;0.314;2023-04-01T07:27:41;98585.91;;;8.05;100.00
64628;BME280;68467;50.960;0.314;2023-04-01T07:30:15;98588.40;;;8.31;100.00
64628;BME280;68467;50.960;0.314;2023-04-01T07:32:48;98590.77;;;8.30;100.00
64628;BME280;68467;50.960;0.314;2023-04-01T07:35:24;98594.79;;;8.53;100.00
64628;BME280;68467;50.960;0.314;2023-04-01T07:38:07;98598.62;;;8.36;100.00
64628;BME280;68467;50.960;0.314;2023-04-01T07:40:41;98604.04;;;7.63;100.00
64628;BME280;68467;50.960;0.314;2023-04-01T07:43:22;98610.54;;;8.27;100.00
64628;BME280;68467;50.960;0.314;2023-04-01T07:46:00;98615.20;;;7.97;100.00
64628;BME280;68467;50.960;0.314;2023-04-01T07:48:35;98614.97;;;7.99;100.00
64628;BME280;68467;50.960;0.314;2023-04-01T07:51:10;98624.50;;;7.49;100.00
64628;BME280;68467;50.960;0.314;2023-04-01T07:53:46;98627.67;;;8.56;100.00
64628;BME280;68467;50.960;0.314;2023-04-01T07:56:20;98633.46;;;8.62;100.00
64628;BME280;68467;50.960;0.314;2023-04-01T07:58:58;98635.92;;;8.00;100.00
64628;BME280;68467;50.960;0.314;2023-04-01T08:01:36;98638.81;;;8.16;100.00
64628;BME280;68467;50.960;0.314;2023-04-01T08:04:20;98637.20;;;8.45;100.00
64628;BME280;68467;50.960;0.314;2023-04-01T08:06:54;98641.69;;;8.23;100.00
64628;BME280;68467;50.960;0.314;2023-04-01T08:09:31;98645.90;;;8.02;100.00
64628;BME280;68467;50.960;0.314;2023-04-01T08:12:10;98650.17;;;8.04;100.00
64628;BME280;68467;50.960;0.314;2023-04-01T08:14:51;98655.60;;;7.93;100.00
64628;BME280;68467;50.960;0.314;2023-04-01T08:17:26;98659.17;;;7.59;100.00
64628;BME280;68467;50.960;0.314;2023-04-01T08:20:04;98661.21;;;7.34;100.00
64628;BME280;68467;50.960;0.314;2023-04-01T08:22:39;98663.18;;;7.20;100.00
64628;BME280;68467;50.960;0.314;2023-04-01T08:25:16;98671.43;;;7.15;100.00
64628;BME280;68467;50.960;0.314;2023-04-01T08:27:46;98675.17;;;7.46;100.00
64628;BME280;68467;50.960;0.314;2023-04-01T08:30:18;98677.81;;;7.01;100.00
64628;BME280;68467;50.960;0.314;2023-04-01T08:32:51;98687.41;;;7.27;100.00
64628;BME280;68467;50.960;0.314;2023-04-01T08:35:26;98684.30;;;7.35;100.00
64628;BME280;68467;50.960;0.314;2023-04-01T08:37:57;98689.34;;;7.74;100.00
64628;BME280;68467;50.960;0.314;2023-04-01T08:41:09;98691.61;;;8.16;100.00
64628;BME280;68467;50.960;0.314;2023-04-01T08:43:58;98700.01;;;7.78;100.00
64628;BME280;68467;50.960;0.314;2023-04-01T08:46:53;98701.29;;;8.06;100.00
64628;BME280;68467;50.960;0.314;2023-04-01T08:49:34;98704.96;;;7.08;100.00
64628;BME280;68467;50.960;0.314;2023-04-01T08:52:16;98708.56;;;7.43;100.00
64628;BME280;68467;50.960;0.314;2023-04-01T08:54:55;98709.24;;;7.71;100.00
64628;BME280;68467;50.960;0.314;2023-04-01T08:57:38;98711.71;;;8.28;100.00
64628;BME280;68467;50.960;0.314;2023-04-01T09:00:16;98713.17;;;8.25;100.00
64628;BME280;68467;50.960;0.314;2023-04-01T09:03:15;98711.94;;;7.51;100.00
64628;BME280;68467;50.960;0.314;2023-04-01T09:06:24;98716.42;;;7.70;100.00
64628;BME280;68467;50.960;0.314;2023-04-01T09:09:11;98719.25;;;8.39;100.00
64628;BME280;68467;50.960;0.314;2023-04-01T09:12:02;98720.49;;;7.97;100.00
64628;BME280;68467;50.960;0.314;2023-04-01T09:14:51;98726.16;;;8.19;100.00
64628;BME280;68467;50.960;0.314;2023-04-01T09:18:19;98722.87;;;9.38;100.00
64628;BME280;68467;50.960;0.314;2023-04-01T09:21:09;98722.56;;;9.23;100.00
64628;BME280;68467;50.960;0.314;2023-04-01T09:23:51;98732.76;;;8.64;100.00
64628;BME280;68467;50.960;0.314;2023-04-01T09:26:37;98737.90;;;8.22;100.00
64628;BME280;68467;50.960;0.314;2023-04-01T09:29:23;98739.43;;;8.63;100.00
64628;BME280;68467;50.960;0.314;2023-04-01T09:32:16;98740.53;;;8.22;100.00
64628;BME280;68467;50.960;0.314;2023-04-01T09:34:54;98745.31;;;7.82;100.00
64628;BME280;68467;50.960;0.314;2023-04-01T09:37:34;98745.58;;;8.30;100.00
64628;BME280;68467;50.960;0.314;2023-04-01T09:40:16;98748.67;;;7.80;100.00
64628;BME280;68467;50.960;0.314;2023-04-01T09:42:54;98751.42;;;7.70;100.00
64628;BME280;68467;50.960;0.314;2023-04-01T09:45:37;98755.83;;;7.82;100.00
64628;BME280;68467;50.960;0.314;2023-04-01T09:48:19;98758.25;;;7.89;100.00
64628;BME280;68467;50.960;0.314;2023-04-01T09:50:55;98765.87;;;8.09;100.00
64628;BME280;68467;50.960;0.314;2023-04-01T09:53:37;98761.57;;;9.18;100.00
64628;BME280;68467;50.960;0.314;2023-04-01T09:56:23;98763.09;;;9.68;100.00
64628;BME280;68467;50.960;0.314;2023-04-01T09:59:43;98768.65;;;8.74;100.00
64628;BME280;68467;50.960;0.314;2023-04-01T10:02:33;98775.87;;;8.69;100.00
64628;BME280;68467;50.960;0.314;2023-04-01T10:07:56;98777.89;;;10.02;100.00
64628;BME280;68467;50.960;0.314;2023-04-01T10:13:01;98789.18;;;8.89;100.00
64628;BME280;68467;50.960;0.314;2023-04-01T10:15:55;98789.43;;;8.14;100.00
64628;BME280;68467;50.960;0.314;2023-04-01T10:18:56;98795.32;;;8.26;100.00
64628;BME280;68467;50.960;0.314;2023-04-01T10:21:53;98802.70;;;8.06;100.00
64628;BME280;68467;50.960;0.314;2023-04-01T10:25:11;98805.74;;;8.11;100.00
64628;BME280;68467;50.960;0.314;2023-04-01T10:28:26;98805.91;;;7.41;100.00
64628;BME280;68467;50.960;0.314;2023-04-01T10:31:28;98807.55;;;7.98;100.00
64628;BME280;68467;50.960;0.314;2023-04-01T10:36:35;98814.15;;;8.94;100.00
64628;BME280;68467;50.960;0.314;2023-04-01T10:39:34;98812.49;;;9.26;100.00
64628;BME280;68467;50.960;0.314;2023-04-01T10:42:51;98815.48;;;8.95;100.00
64628;BME280;68467;50.960;0.314;2023-04-01T10:46:02;98815.51;;;8.51;100.00
64628;BME280;68467;50.960;0.314;2023-04-01T10:51:18;98823.21;;;9.24;100.00
64628;BME280;68467;50.960;0.314;2023-04-01T10:54:07;98830.57;;;8.71;100.00
64628;BME280;68467;50.960;0.314;2023-04-01T10:56:43;98833.50;;;8.92;100.00
64628;BME280;68467;50.960;0.314;2023-04-01T10:59:32;98835.54;;;8.69;100.00
64628;BME280;68467;50.960;0.314;2023-04-01T11:04:43;98835.79;;;8.17;100.00
64628;BME280;68467;50.960;0.314;2023-04-01T11:07:45;98838.75;;;8.39;100.00
64628;BME280;68467;50.960;0.314;2023-04-01T11:10:36;98839.25;;;8.54;100.00
64628;BME280;68467;50.960;0.314;2023-04-01T11:16:53;98841.74;;;8.85;100.00
64628;BME280;68467;50.960;0.314;2023-04-01T11:19:45;98848.72;;;8.32;100.00
64628;BME280;68467;50.960;0.314;2023-04-01T11:22:46;98851.74;;;9.31;100.00
64628;BME280;68467;50.960;0.314;2023-04-01T11:25:24;98852.33;;;9.63;100.00
64628;BME280;68467;50.960;0.314;2023-04-01T11:28:22;98853.53;;;9.65;100.00
64628;BME280;68467;50.960;0.314;2023-04-01T11:31:02;98858.80;;;9.49;100.00
64628;BME280;68467;50.960;0.314;2023-04-01T11:33:36;98859.57;;;9.27;100.00
64628;BME280;68467;50.960;0.314;2023-04-01T11:36:19;98863.85;;;9.19;100.00
64628;BME280;68467;50.960;0.314;2023-04-01T11:39:00;98865.94;;;8.96;100.00
64628;BME280;68467;50.960;0.314;2023-04-01T11:41:36;98870.09;;;8.60;100.00
64628;BME280;68467;50.960;0.314;2023-04-01T11:44:16;98874.06;;;8.61;100.00
64628;BME280;68467;50.960;0.314;2023-04-01T11:46:56;98878.68;;;8.54;100.00
64628;BME280;68467;50.960;0.314;2023-04-01T11:49:38;98878.55;;;9.64;100.00
64628;BME280;68467;50.960;0.314;2023-04-01T11:52:24;98883.53;;;9.70;100.00
64628;BME280;68467;50.960;0.314;2023-04-01T11:55:08;98881.38;;;10.39;100.00
64628;BME280;68467;50.960;0.314;2023-04-01T11:57:56;98887.64;;;10.18;100.00
64628;BME280;68467;50.960;0.314;2023-04-01T12:00:39;98895.61;;;9.36;100.00
64628;BME280;68467;50.960;0.314;2023-04-01T12:03:29;98902.87;;;9.36;100.00
64628;BME280;68467;50.960;0.314;2023-04-01T12:06:07;98903.20;;;9.74;100.00
64628;BME280;68467;50.960;0.314;2023-04-01T12:08:46;98902.85;;;10.38;100.00
64628;BME280;68467;50.960;0.314;2023-04-01T12:11:24;98909.60;;;9.46;100.00
64628;BME280;68467;50.960;0.314;2023-04-01T12:14:02;98918.08;;;9.02;100.00
64628;BME280;68467;50.960;0.314;2023-04-01T12:16:44;98922.99;;;8.73;100.00
64628;BME280;68467;50.960;0.314;2023-04-01T12:19:21;98931.51;;;8.38;100.00
64628;BME280;68467;50.960;0.314;2023-04-01T12:22:00;98935.59;;;8.42;100.00
64628;BME280;68467;50.960;0.314;2023-04-01T12:24:45;98935.96;;;9.04;100.00
64628;BME280;68467;50.960;0.314;2023-04-01T12:27:24;98938.33;;;8.83;100.00
64628;BME280;68467;50.960;0.314;2023-04-01T12:30:48;98937.98;;;9.58;100.00
64628;BME280;68467;50.960;0.314;2023-04-01T12:33:32;98945.15;;;9.03;100.00
64628;BME280;68467;50.960;0.314;2023-04-01T12:36:14;98948.18;;;9.51;100.00
64628;BME280;68467;50.960;0.314;2023-04-01T12:38:51;98952.96;;;9.29;100.00
64628;BME280;68467;50.960;0.314;2023-04-01T12:41:32;98953.72;;;9.12;100.00
64628;BME280;68467;50.960;0.314;2023-04-01T12:44:17;98955.87;;;8.94;100.00
64628;BME280;68467;50.960;0.314;2023-04-01T12:46:59;98963.00;;;9.19;100.00
64628;BME280;68467;50.960;0.314;2023-04-01T12:49:43;98965.79;;;8.91;100.00
64628;BME280;68467;50.960;0.314;2023-04-01T12:52:18;98972.46;;;8.33;100.00
64628;BME280;68467;50.960;0.314;2023-04-01T12:55:30;98972.62;;;8.73;100.00
64628;BME280;68467;50.960;0.314;2023-04-01T12:58:19;98975.29;;;9.11;100.00
64628;BME280;68467;50.960;0.314;2023-04-01T13:01:03;98976.72;;;9.01;100.00
64628;BME280;68467;50.960;0.314;2023-04-01T13:03:48;98977.78;;;9.43;100.00
64628;BME280;68467;50.960;0.314;2023-04-01T13:06:26;98976.46;;;9.78;100.00
64628;BME280;68467;50.960;0.314;2023-04-01T13:09:02;98981.59;;;9.87;100.00
64628;BME280;68467;50.960;0.314;2023-04-01T13:11:41;98983.74;;;9.68;100.00
64628;BME280;68467;50.960;0.314;2023-04-01T13:14:41;98988.57;;;9.74;100.00
64628;BME280;68467;50.960;0.314;2023-04-01T13:17:18;98990.60;;;8.82;100.00
64628;BME280;68467;50.960;0.314;2023-04-01T13:19:50;98996.44;;;9.21;100.00
64628;BME280;68467;50.960;0.314;2023-04-01T13:22:25;98998.62;;;9.30;100.00
64628;BME280;68467;50.960;0.314;2023-04-01T13:24:59;98997.13;;;10.38;100.00
64628;BME280;68467;50.960;0.314;2023-04-01T13:27:34;98991.01;;;11.13;100.00
64628;BME280;68467;50.960;0.314;2023-04-01T13:30:19;98988.57;;;11.19;100.00
64628;BME280;68467;50.960;0.314;2023-04-01T13:32:55;99000.62;;;11.09;100.00
64628;BME280;68467;50.960;0.314;2023-04-01T13:35:33;99008.52;;;10.69;100.00
64628;BME280;68467;50.960;0.314;2023-04-01T13:38:16;99009.29;;;11.33;100.00
64628;BME280;68467;50.960;0.314;2023-04-01T13:40:52;99014.97;;;11.73;100.00
64628;BME280;68467;50.960;0.314;2023-04-01T13:43:27;99020.06;;;11.04;100.00
64628;BME280;68467;50.960;0.314;2023-04-01T13:46:12;99028.38;;;9.95;100.00
64628;BME280;68467;50.960;0.314;2023-04-01T13:48:54;99033.46;;;10.35;100.00
64628;BME280;68467;50.960;0.314;2023-04-01T13:51:56;99034.29;;;10.35;100.00
64628;BME280;68467;50.960;0.314;2023-04-01T13:54:41;99029.61;;;11.17;100.00
64628;BME280;68467;50.960;0.314;2023-04-01T13:57:25;99031.26;;;11.26;100.00
64628;BME280;68467;50.960;0.314;2023-04-01T14:00:19;99037.71;;;10.84;100.00
64628;BME280;68467;50.960;0.314;2023-04-01T14:03:31;99042.65;;;10.42;100.00
64628;BME280;68467;50.960;0.314;2023-04-01T14:06:10;99043.53;;;11.26;100.00
64628;BME280;68467;50.960;0.314;2023-04-01T14:08:53;99048.39;;;11.05;100.00